Time;durP1;ratioP1;P1;durP2;ratioP2;P2;SDS_P1;SDS_P2;PMS_P1;PMS_P2;Temp;Humidity;BMP_temperature;BMP_pressure;BME280_temperature;BME280_humidity;BME280_pressure;Samples;Min_cycle;Max_cycle;Signal;HPM_P1;HPM_P2
2023/06/29 00:02:09;;;;;;;;;;;;;;;;;;5132324;27;1616;-54
2023/06/29 00:04:36;;;;;;;;;;;;;;;;;;5132665;27;2141;-57
2023/06/29 00:07:03;;;;;;;;;;;;;;;;;;5132926;27;1940;-56
2023/06/29 00:09:30;;;;;;;;;;;;;;;;;;5132605;27;1796;-57
2023/06/29 00:11:57;;;;;;;;;;;;;;;;;;5132750;27;2026;-58
2023/06/29 00:14:24;;;;;;;;;;;;;;;;;;5132319;27;2050;-57
2023/06/29 00:16:52;;;;;;;;;;;;;;;;;;5132528;27;1963;-58
2023/06/29 00:19:20;;;;;;;;;;;;;;;;;;5104215;28;1928;-56
2023/06/29 00:21:48;;;;;;;;;;;;;;;;;;5131118;27;2504;-46
2023/06/29 00:24:15;;;;;;;;;;;;;;;;;;5132843;27;2125;-58
2023/06/29 00:26:42;;;;;;;;;;;;;;;;;;5132279;27;2162;-57
2023/06/29 00:29:09;;;;;;;;;;;;;;;;;;5132413;27;1935;-56
2023/06/29 00:31:36;;;;;;;;;;;;;;;;;;5115638;27;2225;-51
2023/06/29 00:34:06;;;;;;;;;;;;;;;;;;5111052;28;2552;-56
2023/06/29 00:36:33;;;;;;;;;;;;;;;;;;5114064;27;2110;-56
2023/06/29 00:39:00;;;;;;;;;;;;;;;;;;5131881;27;1935;-57
2023/06/29 00:41:32;;;;;;;;;;;;;;;;;;5113693;27;2095;-53
2023/06/29 00:44:00;;;;;;;;;;;;;;;;;;5131941;27;2022;-53
2023/06/29 00:46:29;;;;;;;;;;;;;;;;;;5113598;27;2181;-56
2023/06/29 00:48:57;;;;;;;;;;;;;;;;;;5132093;27;2208;-57
2023/06/29 00:51:24;;;;;;;;;;;;;;;;;;5113332;27;2439;-57
2023/06/29 00:53:51;;;;;;;;;;;;;;;;;;5113636;27;2127;-58
2023/06/29 00:56:20;;;;;;;;;;;;;;;;;;5113056;27;2088;-47
2023/06/29 00:58:48;;;;;;;;;;;;;;;;;;5132162;27;1974;-57
2023/06/29 01:01:18;;;;;;;;;;;;;;;;;;5131750;27;2124;-57
2023/06/29 01:03:45;;;;;;;;;;;;;;;;;;5131945;27;2056;-58
2023/06/29 01:06:15;;;;;;;;;;;;;;;;;;5131723;27;2179;-58
2023/06/29 01:08:46;;;;;;;;;;;;;;;;;;5131338;27;2574;-57
2023/06/29 01:11:13;;;;;;;;;;;;;;;;;;5131850;27;2130;-48
2023/06/29 01:13:42;;;;;;;;;;;;;;;;;;5131519;27;2075;-47
2023/06/29 01:16:11;;;;;;;;;;;;;;;;;;5131423;27;2004;-46
2023/06/29 01:18:39;;;;;;;;;;;;;;;;;;5126824;27;2110;-48
2023/06/29 01:21:08;;;;;;;;;;;;;;;;;;5110773;28;2047;-53
2023/06/29 01:23:36;;;;;;;;;;;;;;;;;;5110961;28;2113;-53
2023/06/29 01:26:07;;;;;;;;;;;;;;;;;;5110805;28;2228;-56
2023/06/29 01:28:38;;;;;;;;;;;;;;;;;;5110693;28;1950;-55
2023/06/29 01:31:09;;;;;;;;;;;;;;;;;;5130810;27;2189;-55
2023/06/29 01:33:36;;;;;;;;;;;;;;;;;;5130731;27;1954;-47
2023/06/29 01:36:07;;;;;;;;;;;;;;;;;;5131291;27;2034;-57
2023/06/29 01:38:42;;;;;;;;;;;;;;;;;;5131329;28;2165;-52
2023/06/29 01:41:10;;;;;;;;;;;;;;;;;;5131244;28;2275;-50
2023/06/29 01:43:38;;;;;;;;;;;;;;;;;;5112586;28;2344;-56
2023/06/29 01:46:05;;;;;;;;;;;;;;;;;;5130925;28;2053;-51
2023/06/29 01:48:33;;;;;;;;;;;;;;;;;;5130940;28;2396;-58
2023/06/29 01:51:00;;;;;;;;;;;;;;;;;;5112450;28;2074;-54
2023/06/29 01:53:28;;;;;;;;;;;;;;;;;;5130846;28;2270;-57
2023/06/29 01:55:58;;;;;;;;;;;;;;;;;;5112518;28;2115;-58
2023/06/29 01:58:25;;;;;;;;;;;;;;;;;;5130841;28;2118;-51
2023/06/29 02:00:52;;;;;;;;;;;;;;;;;;5130787;28;2284;-55
2023/06/29 02:03:19;;;;;;;;;;;;;;;;;;5131127;28;2043;-57
2023/06/29 02:05:47;;;;;;;;;;;;;;;;;;5130925;28;2237;-57
2023/06/29 02:08:14;;;;;;;;;;;;;;;;;;5130966;28;2078;-57
2023/06/29 02:10:42;;;;;;;;;;;;;;;;;;5130985;28;2131;-56
2023/06/29 02:13:12;;;;;;;;;;;;;;;;;;5110455;28;2213;-55
2023/06/29 02:15:40;;;;;;;;;;;;;;;;;;5110168;28;2041;-57
2023/06/29 02:18:07;;;;;;;;;;;;;;;;;;5110369;28;2255;-57
2023/06/29 02:20:34;;;;;;;;;;;;;;;;;;5110243;28;2350;-57
2023/06/29 02:23:01;;;;;;;;;;;;;;;;;;5096488;28;2325;-57
2023/06/29 02:25:29;;;;;;;;;;;;;;;;;;5110005;28;2297;-48
2023/06/29 02:27:56;;;;;;;;;;;;;;;;;;5110309;28;2044;-55
2023/06/29 02:30:25;;;;;;;;;;;;;;;;;;5110444;28;2356;-58
2023/06/29 02:32:52;;;;;;;;;;;;;;;;;;5112371;28;2052;-58
2023/06/29 02:35:20;;;;;;;;;;;;;;;;;;5112301;28;2326;-58
2023/06/29 02:37:47;;;;;;;;;;;;;;;;;;5130673;28;2088;-58
2023/06/29 02:40:16;;;;;;;;;;;;;;;;;;5112394;28;2224;-53
2023/06/29 02:42:45;;;;;;;;;;;;;;;;;;5112072;28;2433;-58
2023/06/29 02:45:15;;;;;;;;;;;;;;;;;;5115413;27;2077;-58
2023/06/29 02:47:43;;;;;;;;;;;;;;;;;;5115903;27;2468;-58
2023/06/29 02:50:11;;;;;;;;;;;;;;;;;;5134121;27;2252;-54
2023/06/29 02:52:48;;;;;;;;;;;;;;;;;;5115731;27;2526;-58
2023/06/29 02:55:17;;;;;;;;;;;;;;;;;;5133781;27;2353;-57
2023/06/29 02:57:44;;;;;;;;;;;;;;;;;;5133842;27;2392;-58
2023/06/29 03:00:11;;;;;;;;;;;;;;;;;;5115641;27;2091;-56
2023/06/29 03:02:39;;;;;;;;;;;;;;;;;;5133949;27;2018;-58
2023/06/29 03:05:07;;;;;;;;;;;;;;;;;;5133935;27;2295;-56
2023/06/29 03:07:34;;;;;;;;;;;;;;;;;;5115513;27;2248;-58
2023/06/29 03:10:01;;;;;;;;;;;;;;;;;;5115475;27;2273;-57
2023/06/29 03:12:29;;;;;;;;;;;;;;;;;;5133749;27;2079;-48
2023/06/29 03:14:56;;;;;;;;;;;;;;;;;;5133953;27;2308;-52
2023/06/29 03:17:24;;;;;;;;;;;;;;;;;;5133253;27;2360;-49
2023/06/29 03:19:51;;;;;;;;;;;;;;;;;;5118975;27;2049;-53
2023/06/29 03:22:19;;;;;;;;;;;;;;;;;;5113398;27;2250;-58
2023/06/29 03:24:46;;;;;;;;;;;;;;;;;;5130994;27;2147;-59
2023/06/29 03:27:18;;;;;;;;;;;;;;;;;;5131509;27;2105;-58
2023/06/29 03:29:49;;;;;;;;;;;;;;;;;;5132967;27;2389;-58
2023/06/29 03:32:17;;;;;;;;;;;;;;;;;;5133748;27;2267;-57
2023/06/29 03:34:44;;;;;;;;;;;;;;;;;;5115075;27;2041;-54
2023/06/29 03:37:14;;;;;;;;;;;;;;;;;;5112954;28;2118;-57
2023/06/29 03:39:41;;;;;;;;;;;;;;;;;;5115342;27;2016;-58
2023/06/29 03:42:08;;;;;;;;;;;;;;;;;;5132861;27;1905;-56
2023/06/29 03:44:36;;;;;;;;;;;;;;;;;;5129329;27;1872;-58
2023/06/29 03:47:03;;;;;;;;;;;;;;;;;;5112286;28;2180;-57
2023/06/29 03:49:30;;;;;;;;;;;;;;;;;;5112894;28;2136;-50
2023/06/29 03:52:01;;;;;;;;;;;;;;;;;;5112767;28;2127;-48
2023/06/29 03:54:28;;;;;;;;;;;;;;;;;;5111702;28;2636;-55
2023/06/29 03:56:55;;;;;;;;;;;;;;;;;;5112580;28;2248;-57
2023/06/29 03:59:22;;;;;;;;;;;;;;;;;;5112385;28;2096;-57
2023/06/29 04:01:50;;;;;;;;;;;;;;;;;;5112474;28;2349;-58
2023/06/29 04:04:17;;;;;;;;;;;;;;;;;;5112479;28;2013;-55
2023/06/29 04:06:44;;;;;;;;;;;;;;;;;;5112519;27;2227;-58
2023/06/29 04:09:11;;;;;;;;;;;;;;;;;;5112264;28;1989;-58
2023/06/29 04:11:39;;;;;;;;;;;;;;;;;;5112187;28;2473;-58
2023/06/29 04:14:06;;;;;;;;;;;;;;;;;;5112206;28;2212;-57
2023/06/29 04:16:33;;;;;;;;;;;;;;;;;;5111808;28;2013;-46
2023/06/29 04:19:01;;;;;;;;;;;;;;;;;;5112126;28;2118;-57
2023/06/29 04:21:28;;;;;;;;;;;;;;;;;;5112179;28;1992;-47
2023/06/29 04:23:56;;;;;;;;;;;;;;;;;;5111826;28;2302;-55
2023/06/29 04:26:27;;;;;;;;;;;;;;;;;;5112105;28;2072;-45
2023/06/29 04:29:01;;;;;;;;;;;;;;;;;;5111517;28;2088;-58
2023/06/29 04:31:29;;;;;;;;;;;;;;;;;;5112006;28;1992;-57
2023/06/29 04:33:58;;;;;;;;;;;;;;;;;;5111672;28;2232;-58
2023/06/29 04:36:25;;;;;;;;;;;;;;;;;;5123603;27;2255;-56
2023/06/29 04:38:53;;;;;;;;;;;;;;;;;;5132126;27;2489;-53
2023/06/29 04:41:30;;;;;;;;;;;;;;;;;;5131822;27;2281;-57
2023/06/29 04:43:58;;;;;;;;;;;;;;;;;;5132105;27;2246;-57
2023/06/29 04:46:27;;;;;;;;;;;;;;;;;;5132056;27;2319;-58
2023/06/29 04:48:55;;;;;;;;;;;;;;;;;;5131959;27;2160;-55
2023/06/29 04:51:22;;;;;;;;;;;;;;;;;;5131942;27;2267;-54
2023/06/29 04:53:49;;;;;;;;;;;;;;;;;;5131742;27;2467;-57
2023/06/29 04:56:16;;;;;;;;;;;;;;;;;;5131547;27;2111;-58
2023/06/29 04:58:46;;;;;;;;;;;;;;;;;;5131299;27;2259;-57
2023/06/29 05:01:13;;;;;;;;;;;;;;;;;;5131690;27;1959;-58
2023/06/29 05:03:40;;;;;;;;;;;;;;;;;;5131394;27;2192;-52
2023/06/29 05:06:08;;;;;;;;;;;;;;;;;;5131031;27;2216;-47
2023/06/29 05:08:35;;;;;;;;;;;;;;;;;;5131849;27;2150;-51
2023/06/29 05:11:03;;;;;;;;;;;;;;;;;;5131870;27;2237;-49
2023/06/29 05:13:35;;;;;;;;;;;;;;;;;;5131741;27;2142;-53
2023/06/29 05:16:04;;;;;;;;;;;;;;;;;;5131605;27;2304;-53
2023/06/29 05:18:31;;;;;;;;;;;;;;;;;;5128347;27;2118;-57
2023/06/29 05:20:58;;;;;;;;;;;;;;;;;;5110939;28;2136;-54
2023/06/29 05:23:25;;;;;;;;;;;;;;;;;;5110665;28;2409;-57
2023/06/29 05:25:52;;;;;;;;;;;;;;;;;;5110670;28;2190;-53
2023/06/29 05:28:20;;;;;;;;;;;;;;;;;;5110529;28;2322;-57
2023/06/29 05:30:47;;;;;;;;;;;;;;;;;;5110787;28;2072;-52
2023/06/29 05:33:17;;;;;;;;;;;;;;;;;;5110317;28;2504;-57
2023/06/29 05:35:44;;;;;;;;;;;;;;;;;;5131107;27;2314;-57
2023/06/29 05:38:11;;;;;;;;;;;;;;;;;;5131264;27;2034;-56
2023/06/29 05:40:38;;;;;;;;;;;;;;;;;;5131143;28;2403;-56
2023/06/29 05:43:06;;;;;;;;;;;;;;;;;;5131080;28;2120;-56
2023/06/29 05:45:33;;;;;;;;;;;;;;;;;;5131534;28;2420;-52
2023/06/29 05:48:00;;;;;;;;;;;;;;;;;;5130801;28;2040;-57
2023/06/29 05:50:28;;;;;;;;;;;;;;;;;;5131016;28;1921;-57
2023/06/29 05:52:55;;;;;;;;;;;;;;;;;;5131266;28;2136;-58
2023/06/29 05:55:23;;;;;;;;;;;;;;;;;;5130736;28;2206;-59
2023/06/29 05:57:53;;;;;;;;;;;;;;;;;;5131321;28;1930;-53
2023/06/29 06:00:20;;;;;;;;;;;;;;;;;;5130579;28;2090;-55
2023/06/29 06:02:48;;;;;;;;;;;;;;;;;;5131076;28;1946;-54
2023/06/29 06:05:15;;;;;;;;;;;;;;;;;;5131123;28;2112;-59
2023/06/29 06:07:42;;;;;;;;;;;;;;;;;;5130820;28;2415;-57
2023/06/29 06:10:10;;;;;;;;;;;;;;;;;;5130732;28;2069;-46
2023/06/29 06:12:37;;;;;;;;;;;;;;;;;;5130650;28;2011;-57
2023/06/29 06:15:05;;;;;;;;;;;;;;;;;;5130517;28;2006;-56
2023/06/29 06:17:33;;;;;;;;;;;;;;;;;;5131564;27;2059;-58
2023/06/29 06:20:00;;;;;;;;;;;;;;;;;;5111923;27;2238;-58
2023/06/29 06:22:27;;;;;;;;;;;;;;;;;;5121130;27;2237;-56
2023/06/29 06:24:54;;;;;;;;;;;;;;;;;;5114303;28;2300;-57
2023/06/29 06:27:24;;;;;;;;;;;;;;;;;;5114141;28;1960;-57
2023/06/29 06:29:51;;;;;;;;;;;;;;;;;;5113942;27;2172;-57
2023/06/29 06:32:20;;;;;;;;;;;;;;;;;;5114004;28;2316;-52
2023/06/29 06:34:48;;;;;;;;;;;;;;;;;;5113681;28;1969;-57
2023/06/29 06:37:15;;;;;;;;;;;;;;;;;;5126969;27;2017;-58
2023/06/29 06:39:42;;;;;;;;;;;;;;;;;;5134634;27;2326;-57
2023/06/29 06:42:10;;;;;;;;;;;;;;;;;;5134333;27;2272;-56
2023/06/29 06:44:51;;;;;;;;;;;;;;;;;;5099504;27;2105;-57
2023/06/29 06:47:18;;;;;;;;;;;;;;;;;;5134219;27;1978;-58
2023/06/29 06:49:46;;;;;;;;;;;;;;;;;;5134256;27;2093;-56
2023/06/29 06:52:14;;;;;;;;;;;;;;;;;;5134056;27;2183;-53
2023/06/29 06:54:41;;;;;;;;;;;;;;;;;;5134279;27;2437;-58
2023/06/29 06:57:10;;;;;;;;;;;;;;;;;;5134227;27;2012;-50
2023/06/29 06:59:37;;;;;;;;;;;;;;;;;;5133987;27;2091;-57
2023/06/29 07:02:05;;;;;;;;;;;;;;;;;;5134296;27;2073;-58
2023/06/29 07:04:32;;;;;;;;;;;;;;;;;;5133945;27;2090;-58
2023/06/29 07:07:00;;;;;;;;;;;;;;;;;;5133953;27;2281;-58
2023/06/29 07:09:27;;;;;;;;;;;;;;;;;;5133837;27;2056;-46
2023/06/29 07:11:54;;;;;;;;;;;;;;;;;;5133885;27;2260;-52
2023/06/29 07:14:21;;;;;;;;;;;;;;;;;;5133974;27;2106;-48
2023/06/29 07:16:49;;;;;;;;;;;;;;;;;;5133758;27;2049;-58
2023/06/29 07:19:16;;;;;;;;;;;;;;;;;;5123766;27;2314;-57
2023/06/29 07:21:46;;;;;;;;;;;;;;;;;;5113134;28;2095;-56
2023/06/29 07:24:16;;;;;;;;;;;;;;;;;;5113093;28;2252;-55
2023/06/29 07:26:43;;;;;;;;;;;;;;;;;;5113379;28;2017;-57
2023/06/29 07:29:11;;;;;;;;;;;;;;;;;;5112187;28;2406;-55
2023/06/29 07:31:38;;;;;;;;;;;;;;;;;;5113154;28;2190;-59
2023/06/29 07:34:05;;;;;;;;;;;;;;;;;;5133280;27;2141;-57
2023/06/29 07:36:34;;;;;;;;;;;;;;;;;;5133061;27;2292;-58
2023/06/29 07:39:02;;;;;;;;;;;;;;;;;;5133033;27;1998;-58
2023/06/29 07:41:31;;;;;;;;;;;;;;;;;;5133279;27;2303;-53
2023/06/29 07:43:59;;;;;;;;;;;;;;;;;;5133100;27;2200;-57
2023/06/29 07:46:27;;;;;;;;;;;;;;;;;;5133193;27;2233;-58
2023/06/29 07:48:55;;;;;;;;;;;;;;;;;;5133182;27;2057;-51
2023/06/29 07:51:22;;;;;;;;;;;;;;;;;;5132863;27;1986;-57
2023/06/29 07:53:50;;;;;;;;;;;;;;;;;;5132934;27;2291;-56
2023/06/29 07:56:17;;;;;;;;;;;;;;;;;;5132981;27;2134;-57
2023/06/29 07:58:45;;;;;;;;;;;;;;;;;;5133127;27;2296;-57
2023/06/29 08:01:14;;;;;;;;;;;;;;;;;;5132554;27;2062;-58
2023/06/29 08:03:44;;;;;;;;;;;;;;;;;;5133192;27;2191;-57
2023/06/29 08:06:27;;;;;;;;;;;;;;;;;;5132388;27;2142;-57
2023/06/29 08:08:58;;;;;;;;;;;;;;;;;;5132878;27;2306;-56
2023/06/29 08:11:25;;;;;;;;;;;;;;;;;;5132566;27;2025;-56
2023/06/29 08:13:52;;;;;;;;;;;;;;;;;;5132572;27;2042;-57
2023/06/29 08:16:19;;;;;;;;;;;;;;;;;;5112129;28;2198;-58
2023/06/29 08:18:47;;;;;;;;;;;;;;;;;;5112264;28;2198;-57
2023/06/29 08:21:14;;;;;;;;;;;;;;;;;;5112059;28;2264;-53
2023/06/29 08:23:41;;;;;;;;;;;;;;;;;;5111683;28;2290;-57
2023/06/29 08:26:08;;;;;;;;;;;;;;;;;;5111732;27;2100;-57
2023/06/29 08:28:36;;;;;;;;;;;;;;;;;;5112334;27;2435;-57
2023/06/29 08:31:03;;;;;;;;;;;;;;;;;;5132266;27;2152;-55
2023/06/29 08:33:33;;;;;;;;;;;;;;;;;;5131748;27;2282;-57
2023/06/29 08:36:00;;;;;;;;;;;;;;;;;;5113361;27;2311;-53
2023/06/29 08:38:27;;;;;;;;;;;;;;;;;;5132174;27;2299;-57
2023/06/29 08:40:57;;;;;;;;;;;;;;;;;;5131202;27;2063;-56
2023/06/29 08:43:25;;;;;;;;;;;;;;;;;;5131775;27;2030;-56
2023/06/29 08:45:52;;;;;;;;;;;;;;;;;;5131983;27;2474;-58
2023/06/29 08:48:20;;;;;;;;;;;;;;;;;;5131796;27;2373;-46
2023/06/29 08:50:56;;;;;;;;;;;;;;;;;;5132352;27;2252;-54
2023/06/29 08:53:24;;;;;;;;;;;;;;;;;;5131483;27;2366;-56
2023/06/29 08:55:52;;;;;;;;;;;;;;;;;;5131701;27;2319;-57
2023/06/29 08:58:20;;;;;;;;;;;;;;;;;;5131651;27;2311;-51
2023/06/29 09:00:50;;;;;;;;;;;;;;;;;;5132212;27;2524;-57
2023/06/29 09:03:18;;;;;;;;;;;;;;;;;;5131557;27;2260;-54
2023/06/29 09:05:46;;;;;;;;;;;;;;;;;;5131860;27;2192;-58
2023/06/29 09:08:13;;;;;;;;;;;;;;;;;;5131587;27;2335;-56
2023/06/29 09:10:41;;;;;;;;;;;;;;;;;;5131550;27;2123;-55
2023/06/29 09:13:09;;;;;;;;;;;;;;;;;;5131773;27;2325;-55
2023/06/29 09:15:37;;;;;;;;;;;;;;;;;;5131290;27;2409;-57
2023/06/29 09:18:05;;;;;;;;;;;;;;;;;;5131759;27;2511;-56
2023/06/29 09:20:34;;;;;;;;;;;;;;;;;;5110675;28;2156;-50
2023/06/29 09:23:05;;;;;;;;;;;;;;;;;;5110861;28;2255;-57
2023/06/29 09:25:38;;;;;;;;;;;;;;;;;;5112242;27;2438;-57
2023/06/29 09:28:06;;;;;;;;;;;;;;;;;;5114050;27;1987;-58
2023/06/29 09:30:40;;;;;;;;;;;;;;;;;;5115009;27;2377;-56
2023/06/29 09:33:15;;;;;;;;;;;;;;;;;;5109989;28;2097;-53
2023/06/29 09:35:46;;;;;;;;;;;;;;;;;;5110683;28;2522;-58
2023/06/29 09:38:14;;;;;;;;;;;;;;;;;;5110712;28;1989;-58
2023/06/29 09:40:48;;;;;;;;;;;;;;;;;;5110719;28;2382;-56
2023/06/29 09:43:17;;;;;;;;;;;;;;;;;;5110643;28;2270;-52
2023/06/29 09:45:44;;;;;;;;;;;;;;;;;;5110694;28;2513;-58
2023/06/29 09:48:12;;;;;;;;;;;;;;;;;;5110888;28;2458;-50
2023/06/29 09:50:47;;;;;;;;;;;;;;;;;;5124769;28;2450;-59
2023/06/29 09:53:16;;;;;;;;;;;;;;;;;;5112442;28;2376;-58
2023/06/29 09:55:43;;;;;;;;;;;;;;;;;;5114847;27;2255;-55
2023/06/29 09:58:11;;;;;;;;;;;;;;;;;;5114995;28;1917;-57
2023/06/29 10:00:39;;;;;;;;;;;;;;;;;;5114774;28;2015;-58
2023/06/29 10:03:07;;;;;;;;;;;;;;;;;;5114969;28;2176;-57
2023/06/29 10:05:34;;;;;;;;;;;;;;;;;;5114135;28;2127;-58
2023/06/29 10:08:04;;;;;;;;;;;;;;;;;;5114005;28;2263;-52
2023/06/29 10:10:33;;;;;;;;;;;;;;;;;;5113450;28;1966;-58
2023/06/29 10:13:04;;;;;;;;;;;;;;;;;;5113963;28;1964;-54
2023/06/29 10:15:35;;;;;;;;;;;;;;;;;;5113975;28;2171;-57
2023/06/29 10:18:16;;;;;;;;;;;;;;;;;;5134435;27;2415;-58
2023/06/29 10:20:45;;;;;;;;;;;;;;;;;;5113764;28;2138;-58
2023/06/29 10:23:14;;;;;;;;;;;;;;;;;;5123050;27;2094;-57
2023/06/29 10:25:44;;;;;;;;;;;;;;;;;;5120062;27;2131;-56
2023/06/29 10:28:12;;;;;;;;;;;;;;;;;;5114199;28;2441;-52
2023/06/29 10:30:44;;;;;;;;;;;;;;;;;;5114199;28;2188;-58
2023/06/29 10:33:12;;;;;;;;;;;;;;;;;;5132608;27;2445;-53
2023/06/29 10:35:40;;;;;;;;;;;;;;;;;;5118042;27;1957;-55
2023/06/29 10:38:09;;;;;;;;;;;;;;;;;;5114125;28;2248;-54
2023/06/29 10:40:45;;;;;;;;;;;;;;;;;;5114143;28;2039;-53
2023/06/29 10:43:12;;;;;;;;;;;;;;;;;;5114036;27;2463;-57
2023/06/29 10:45:39;;;;;;;;;;;;;;;;;;5113866;28;2446;-58
2023/06/29 10:48:08;;;;;;;;;;;;;;;;;;5113651;28;2080;-54
2023/06/29 10:50:41;;;;;;;;;;;;;;;;;;5113792;28;2323;-55
2023/06/29 10:53:10;;;;;;;;;;;;;;;;;;5113809;28;2128;-57
2023/06/29 10:55:41;;;;;;;;;;;;;;;;;;5113805;28;2259;-55
2023/06/29 10:58:11;;;;;;;;;;;;;;;;;;5121917;27;2072;-53
2023/06/29 11:00:39;;;;;;;;;;;;;;;;;;5121786;27;2232;-57
2023/06/29 11:03:07;;;;;;;;;;;;;;;;;;5113864;28;2148;-58
2023/06/29 11:05:35;;;;;;;;;;;;;;;;;;5114461;27;2019;-45
2023/06/29 11:08:02;;;;;;;;;;;;;;;;;;5133666;27;2470;-46
2023/06/29 11:10:29;;;;;;;;;;;;;;;;;;5133726;27;2029;-44
2023/06/29 11:12:56;;;;;;;;;;;;;;;;;;5133782;27;2371;-45
2023/06/29 11:15:26;;;;;;;;;;;;;;;;;;5117518;27;2014;-50
2023/06/29 11:17:55;;;;;;;;;;;;;;;;;;5097715;28;2213;-53
2023/06/29 11:20:27;;;;;;;;;;;;;;;;;;5112924;28;2084;-46
2023/06/29 11:22:57;;;;;;;;;;;;;;;;;;5113463;28;2003;-51
2023/06/29 11:25:26;;;;;;;;;;;;;;;;;;5113193;27;2162;-57
2023/06/29 11:27:53;;;;;;;;;;;;;;;;;;5113032;28;1922;-45
2023/06/29 11:30:20;;;;;;;;;;;;;;;;;;5113235;27;2259;-58
2023/06/29 11:32:49;;;;;;;;;;;;;;;;;;5112917;28;2099;-53
2023/06/29 11:35:20;;;;;;;;;;;;;;;;;;5113160;28;2313;-57
2023/06/29 11:37:48;;;;;;;;;;;;;;;;;;5113076;28;2536;-57
2023/06/29 11:40:19;;;;;;;;;;;;;;;;;;5112880;28;2088;-58
2023/06/29 11:42:48;;;;;;;;;;;;;;;;;;5112779;28;2310;-57
2023/06/29 11:45:16;;;;;;;;;;;;;;;;;;5095767;28;2005;-55
2023/06/29 11:47:46;;;;;;;;;;;;;;;;;;5112810;28;2375;-57
2023/06/29 11:50:15;;;;;;;;;;;;;;;;;;5112443;28;2151;-49
2023/06/29 11:52:44;;;;;;;;;;;;;;;;;;5112574;28;2465;-56
2023/06/29 11:55:13;;;;;;;;;;;;;;;;;;5112562;28;2052;-57
2023/06/29 11:57:41;;;;;;;;;;;;;;;;;;5112550;28;2294;-55
2023/06/29 12:00:11;;;;;;;;;;;;;;;;;;5112427;28;2350;-49
2023/06/29 12:02:42;;;;;;;;;;;;;;;;;;5114026;27;2013;-55
2023/06/29 12:05:09;;;;;;;;;;;;;;;;;;5115821;27;2471;-58
2023/06/29 12:07:41;;;;;;;;;;;;;;;;;;5112345;28;2000;-57
2023/06/29 12:10:10;;;;;;;;;;;;;;;;;;5112300;28;2213;-47
2023/06/29 12:12:37;;;;;;;;;;;;;;;;;;5112258;28;1996;-51
2023/06/29 12:15:31;;;;;;;;;;;;;;;;;;5112093;28;2266;-59
2023/06/29 12:18:05;;;;;;;;;;;;;;;;;;5109215;27;2406;-52
2023/06/29 12:20:38;;;;;;;;;;;;;;;;;;5112279;27;2176;-57
2023/06/29 12:23:06;;;;;;;;;;;;;;;;;;5112073;28;2424;-60
2023/06/29 12:25:40;;;;;;;;;;;;;;;;;;5128016;27;2115;-46
2023/06/29 12:28:07;;;;;;;;;;;;;;;;;;5119224;27;2294;-57
2023/06/29 12:30:35;;;;;;;;;;;;;;;;;;5115402;27;2121;-58
2023/06/29 12:33:02;;;;;;;;;;;;;;;;;;5114300;27;2132;-54
2023/06/29 12:35:29;;;;;;;;;;;;;;;;;;5127019;27;2291;-52
2023/06/29 12:37:57;;;;;;;;;;;;;;;;;;5111281;28;2173;-57
2023/06/29 12:40:24;;;;;;;;;;;;;;;;;;5111795;28;2256;-56
2023/06/29 12:42:54;;;;;;;;;;;;;;;;;;5113985;27;2568;-57
2023/06/29 12:45:22;;;;;;;;;;;;;;;;;;5131607;27;2023;-58
2023/06/29 12:47:49;;;;;;;;;;;;;;;;;;5132104;27;2268;-57
2023/06/29 12:50:17;;;;;;;;;;;;;;;;;;5131839;27;2040;-54
2023/06/29 12:52:46;;;;;;;;;;;;;;;;;;5113779;27;2290;-56
2023/06/29 12:55:14;;;;;;;;;;;;;;;;;;5131589;27;2459;-53
2023/06/29 12:57:43;;;;;;;;;;;;;;;;;;5132054;27;2316;-57
2023/06/29 13:00:13;;;;;;;;;;;;;;;;;;5131474;27;2448;-50
2023/06/29 13:02:40;;;;;;;;;;;;;;;;;;5131774;27;2215;-57
2023/06/29 13:05:08;;;;;;;;;;;;;;;;;;5131912;27;2454;-57
2023/06/29 13:07:35;;;;;;;;;;;;;;;;;;5131457;27;2645;-49
2023/06/29 13:10:03;;;;;;;;;;;;;;;;;;5131729;27;2424;-54
2023/06/29 13:12:31;;;;;;;;;;;;;;;;;;5131237;27;2296;-54
2023/06/29 13:14:58;;;;;;;;;;;;;;;;;;5131427;27;2390;-58
2023/06/29 13:17:26;;;;;;;;;;;;;;;;;;5131343;27;2241;-51
2023/06/29 13:19:53;;;;;;;;;;;;;;;;;;5116631;27;2411;-58
2023/06/29 13:22:21;;;;;;;;;;;;;;;;;;5111105;28;2251;-57
2023/06/29 13:24:51;;;;;;;;;;;;;;;;;;5110818;28;1930;-57
2023/06/29 13:27:19;;;;;;;;;;;;;;;;;;5110468;28;2049;-52
2023/06/29 13:29:46;;;;;;;;;;;;;;;;;;5111118;28;2035;-56
2023/06/29 13:32:13;;;;;;;;;;;;;;;;;;5131523;27;2201;-57
2023/06/29 13:34:40;;;;;;;;;;;;;;;;;;5131060;27;2014;-58
2023/06/29 13:37:08;;;;;;;;;;;;;;;;;;5131040;27;2077;-45
2023/06/29 13:39:36;;;;;;;;;;;;;;;;;;5131434;27;2331;-58
2023/06/29 13:42:05;;;;;;;;;;;;;;;;;;5131425;27;1975;-50
2023/06/29 13:44:32;;;;;;;;;;;;;;;;;;5131156;27;2424;-54
2023/06/29 13:46:59;;;;;;;;;;;;;;;;;;5131427;28;2022;-51
2023/06/29 13:49:26;;;;;;;;;;;;;;;;;;5130986;28;1991;-55
2023/06/29 13:51:54;;;;;;;;;;;;;;;;;;5131308;28;2193;-48
2023/06/29 13:54:21;;;;;;;;;;;;;;;;;;5131174;28;2139;-55
2023/06/29 13:56:49;;;;;;;;;;;;;;;;;;5131225;28;2157;-59
2023/06/29 13:59:16;;;;;;;;;;;;;;;;;;5131216;28;2279;-58
2023/06/29 14:01:43;;;;;;;;;;;;;;;;;;5110379;28;2244;-58
2023/06/29 14:04:11;;;;;;;;;;;;;;;;;;5110686;28;2196;-57
2023/06/29 14:06:39;;;;;;;;;;;;;;;;;;5110765;28;2023;-46
2023/06/29 14:09:07;;;;;;;;;;;;;;;;;;5110574;28;2307;-59
2023/06/29 14:11:34;;;;;;;;;;;;;;;;;;5110431;28;2081;-54
2023/06/29 14:14:02;;;;;;;;;;;;;;;;;;5110188;28;2468;-55
2023/06/29 14:16:30;;;;;;;;;;;;;;;;;;5110295;28;1901;-56
2023/06/29 14:18:57;;;;;;;;;;;;;;;;;;5110378;28;2125;-57
2023/06/29 14:21:25;;;;;;;;;;;;;;;;;;5110575;28;1961;-57
2023/06/29 14:23:53;;;;;;;;;;;;;;;;;;5110392;28;2024;-57
2023/06/29 14:26:20;;;;;;;;;;;;;;;;;;5110321;28;2259;-53
2023/06/29 14:28:48;;;;;;;;;;;;;;;;;;5110219;28;1960;-54
2023/06/29 14:31:16;;;;;;;;;;;;;;;;;;5110539;28;2307;-49
2023/06/29 14:33:43;;;;;;;;;;;;;;;;;;5109923;28;2323;-48
2023/06/29 14:36:10;;;;;;;;;;;;;;;;;;5110597;28;2289;-52
2023/06/29 14:38:41;;;;;;;;;;;;;;;;;;5111311;28;2305;-50
2023/06/29 14:41:08;;;;;;;;;;;;;;;;;;5114194;28;2184;-53
2023/06/29 14:43:36;;;;;;;;;;;;;;;;;;5113769;28;2304;-57
2023/06/29 14:46:03;;;;;;;;;;;;;;;;;;5113991;28;2138;-51
2023/06/29 14:48:30;;;;;;;;;;;;;;;;;;5113886;28;2155;-46
2023/06/29 14:50:59;;;;;;;;;;;;;;;;;;5113576;28;2546;-57
2023/06/29 14:53:26;;;;;;;;;;;;;;;;;;5113655;28;2121;-47
2023/06/29 14:56:04;;;;;;;;;;;;;;;;;;5113681;28;2390;-57
2023/06/29 14:58:31;;;;;;;;;;;;;;;;;;5113325;28;2008;-47
2023/06/29 15:00:58;;;;;;;;;;;;;;;;;;5113573;28;2381;-53
2023/06/29 15:03:26;;;;;;;;;;;;;;;;;;5113491;28;2134;-45
2023/06/29 15:05:53;;;;;;;;;;;;;;;;;;5113520;28;2343;-56
2023/06/29 15:08:20;;;;;;;;;;;;;;;;;;5113464;28;2675;-47
2023/06/29 15:10:47;;;;;;;;;;;;;;;;;;5113452;27;2038;-49
2023/06/29 15:13:15;;;;;;;;;;;;;;;;;;5113509;28;2316;-48
2023/06/29 15:15:43;;;;;;;;;;;;;;;;;;5113457;28;2109;-49
2023/06/29 15:18:11;;;;;;;;;;;;;;;;;;5113413;28;2456;-50
2023/06/29 15:20:38;;;;;;;;;;;;;;;;;;5113322;28;2354;-57
2023/06/29 15:23:06;;;;;;;;;;;;;;;;;;5113125;28;2179;-48
2023/06/29 15:25:33;;;;;;;;;;;;;;;;;;5112979;28;2442;-46
2023/06/29 15:28:01;;;;;;;;;;;;;;;;;;5113091;28;2365;-46
2023/06/29 15:30:29;;;;;;;;;;;;;;;;;;5113121;28;2426;-56
2023/06/29 15:32:56;;;;;;;;;;;;;;;;;;5112567;28;2402;-50
2023/06/29 15:35:25;;;;;;;;;;;;;;;;;;5113099;28;2250;-52
2023/06/29 15:37:52;;;;;;;;;;;;;;;;;;5113007;28;2295;-47
2023/06/29 15:40:20;;;;;;;;;;;;;;;;;;5112748;28;2162;-46
2023/06/29 15:42:47;;;;;;;;;;;;;;;;;;5113131;28;2333;-51
2023/06/29 15:45:14;;;;;;;;;;;;;;;;;;5112807;28;2345;-46
2023/06/29 15:47:41;;;;;;;;;;;;;;;;;;5112982;28;2285;-47
2023/06/29 15:50:09;;;;;;;;;;;;;;;;;;5111911;28;2256;-49
2023/06/29 15:52:36;;;;;;;;;;;;;;;;;;5112432;28;2269;-49
2023/06/29 15:55:06;;;;;;;;;;;;;;;;;;5112747;28;2411;-48
2023/06/29 15:57:33;;;;;;;;;;;;;;;;;;5112509;28;2168;-47
2023/06/29 16:00:01;;;;;;;;;;;;;;;;;;5112705;28;2375;-50
2023/06/29 16:02:37;;;;;;;;;;;;;;;;;;5112146;28;2412;-49
2023/06/29 16:05:04;;;;;;;;;;;;;;;;;;5112271;28;2299;-48
2023/06/29 16:07:32;;;;;;;;;;;;;;;;;;5112276;28;2043;-48
2023/06/29 16:09:59;;;;;;;;;;;;;;;;;;5112483;28;2311;-49
2023/06/29 16:12:26;;;;;;;;;;;;;;;;;;5112560;28;2129;-48
2023/06/29 16:14:55;;;;;;;;;;;;;;;;;;5111989;28;1790;-49
2023/06/29 16:17:22;;;;;;;;;;;;;;;;;;5112301;28;2158;-48
2023/06/29 16:19:51;;;;;;;;;;;;;;;;;;5111914;28;2076;-53
2023/06/29 16:22:25;;;;;;;;;;;;;;;;;;5112735;28;2344;-50
2023/06/29 16:24:52;;;;;;;;;;;;;;;;;;5111963;28;2177;-55
2023/06/29 16:27:20;;;;;;;;;;;;;;;;;;5112090;28;2205;-54
2023/06/29 16:29:47;;;;;;;;;;;;;;;;;;5112146;28;2210;-57
2023/06/29 16:32:14;;;;;;;;;;;;;;;;;;5111889;28;2036;-49
2023/06/29 16:34:41;;;;;;;;;;;;;;;;;;5111960;28;2204;-50
2023/06/29 16:37:08;;;;;;;;;;;;;;;;;;5111488;28;1970;-58
2023/06/29 16:39:36;;;;;;;;;;;;;;;;;;5111887;28;2165;-56
2023/06/29 16:42:04;;;;;;;;;;;;;;;;;;5111652;28;1713;-51
2023/06/29 16:44:32;;;;;;;;;;;;;;;;;;5111665;28;1679;-51
2023/06/29 16:47:00;;;;;;;;;;;;;;;;;;5111688;28;1960;-50
2023/06/29 16:49:27;;;;;;;;;;;;;;;;;;5111266;28;1952;-56
2023/06/29 16:51:54;;;;;;;;;;;;;;;;;;5111368;28;2088;-58
2023/06/29 16:54:22;;;;;;;;;;;;;;;;;;5113538;27;2261;-54
2023/06/29 16:56:49;;;;;;;;;;;;;;;;;;5131655;27;2316;-56
2023/06/29 16:59:16;;;;;;;;;;;;;;;;;;5131906;27;2225;-48
2023/06/29 17:01:43;;;;;;;;;;;;;;;;;;5131298;27;1994;-55
2023/06/29 17:04:11;;;;;;;;;;;;;;;;;;5131561;27;2153;-56
2023/06/29 17:06:38;;;;;;;;;;;;;;;;;;5113234;27;2114;-58
2023/06/29 17:09:06;;;;;;;;;;;;;;;;;;5130377;27;2539;-49
2023/06/29 17:11:34;;;;;;;;;;;;;;;;;;5131413;27;2031;-59